Time;durP1;ratioP1;P1;durP2;ratioP2;P2;SDS_P1;SDS_P2;PMS_P1;PMS_P2;Temp;Humidity;BMP_temperature;BMP_pressure;BME280_temperature;BME280_humidity;BME280_pressure;Samples;Min_cycle;Max_cycle;Signal;HPM_P1;HPM_P2
2021/01/01 00:02:01;;;;;;;;;;;1.80;99.90;;;;;;12876835;23;20020;-92
2021/01/01 00:07:03;;;;;;;96.25;58.88;;;1.70;99.90;;;;;;12899248;23;19915;-92
2021/01/01 00:12:05;;;;;;;89.70;54.08;;;1.60;99.90;;;;;;12850083;23;20020;-92
2021/01/01 00:17:07;;;;;;;91.63;57.15;;;1.60;99.90;;;;;;12899628;23;20419;-92
2021/01/01 00:22:11;;;;;;;98.93;62.30;;;1.60;99.90;;;;;;12874352;23;20349;-92
2021/01/01 00:27:13;;;;;;;96.78;58.60;;;1.60;99.90;;;;;;12875103;23;20024;-92
2021/01/01 00:32:14;;;;;;;85.95;53.75;;;1.60;99.90;;;;;;12876315;23;20046;-92
2021/01/01 00:37:16;;;;;;;85.03;53.80;;;1.60;99.90;;;;;;12850642;23;20016;-93
2021/01/01 00:42:18;;;;;;;;;;;1.60;99.90;;;;;;12877273;23;20031;-93
2021/01/01 00:47:19;;;;;;;96.03;55.08;;;1.60;99.90;;;;;;12904339;23;19920;-93
2021/01/01 00:52:22;;;;;;;109.70;63.30;;;1.80;99.90;;;;;;12879163;23;20023;-92
2021/01/01 00:57:23;;;;;;;83.72;51.53;;;1.80;99.90;;;;;;12878374;23;20039;-91
2021/01/01 01:02:24;;;;;;;89.68;55.75;;;1.80;99.90;;;;;;12878772;23;20027;-92
2021/01/01 01:07:26;;;;;;;99.47;55.83;;;1.80;99.90;;;;;;12877843;23;20024;-92
2021/01/01 01:12:29;;;;;;;;;;;1.70;99.90;;;;;;12879664;23;20024;-93
2021/01/01 01:17:30;;;;;;;89.47;52.70;;;1.60;99.90;;;;;;12902817;23;19923;-92
2021/01/01 01:22:32;;;;;;;96.22;59.88;;;1.60;99.90;;;;;;12877936;23;20020;-92
2021/01/01 01:27:33;;;;;;;124.93;70.78;;;1.60;99.90;;;;;;12880341;23;20040;-92
2021/01/01 01:32:35;;;;;;;150.60;84.32;;;1.80;99.90;;;;;;12852974;23;20031;-92
2021/01/01 01:37:38;;;;;;;148.07;84.15;;;1.90;99.90;;;;;;12877920;23;20016;-93
2021/01/01 01:42:42;;;;;;;167.80;91.97;;;1.80;99.90;;;;;;12877267;23;20075;-92
2021/01/01 01:47:44;;;;;;;132.88;79.25;;;1.80;99.90;;;;;;12878092;23;20453;-93
2021/01/01 01:52:47;;;;;;;130.48;78.00;;;1.80;99.90;;;;;;12851826;23;20046;-92
2021/01/01 01:58:02;;;;;;;130.20;77.78;;;1.90;99.90;;;;;;12877872;23;20088;-92
2021/01/01 02:03:04;;;;;;;132.20;78.60;;;1.80;99.90;;;;;;12877081;23;20055;-92
2021/01/01 02:08:07;;;;;;;133.07;77.43;;;1.70;99.90;;;;;;12876831;23;20020;-93
2021/01/01 02:13:10;;;;;;;130.02;74.85;;;1.80;99.90;;;;;;12877615;23;20074;-92
2021/01/01 02:18:12;;;;;;;127.88;75.15;;;1.80;99.90;;;;;;12876205;23;20043;-92
2021/01/01 02:23:13;;;;;;;;;;;1.80;99.90;;;;;;12853721;23;20039;-92
2021/01/01 08:54:25;;;;;;;60.55;32.63;;;2.20;99.90;;;;;;12928426;22;20024;-92
2021/01/01 08:59:28;;;;;;;49.78;30.02;;;2.20;99.90;;;;;;12878641;23;20077;-92
2021/01/01 09:04:29;;;;;;;65.15;34.95;;;2.30;99.90;;;;;;12853287;23;20043;-93
2021/01/01 09:09:32;;;;;;;;;;;2.30;99.90;;;;;;12853682;23;20050;-93
2021/01/01 09:14:45;;;;;;;;;;;2.50;99.90;;;;;;12905243;23;19935;-93
2021/01/01 09:19:47;;;;;;;71.20;38.50;;;2.70;99.90;;;;;;12878217;23;19990;-93
2021/01/01 09:24:48;;;;;;;60.75;35.28;;;2.80;99.90;;;;;;12877809;23;20415;-93
2021/01/01 09:30:00;;;;;;;61.28;35.08;;;3.00;99.90;;;;;;12852363;23;20108;-92
2021/01/01 09:35:03;;;;;;;63.13;33.80;;;2.90;99.90;;;;;;12855929;23;20020;-92
2021/01/01 09:40:06;;;;;;;60.97;33.13;;;3.10;99.90;;;;;;12902259;23;20473;-92
2021/01/01 09:45:08;;;;;;;63.67;36.28;;;3.20;99.90;;;;;;12878106;23;20039;-91
2021/01/01 09:50:10;;;;;;;63.65;38.65;;;3.20;99.90;;;;;;12877029;23;20020;-91
2021/01/01 09:55:12;;;;;;;56.97;30.80;;;3.10;99.90;;;;;;12852581;23;20099;-91
2021/01/01 10:00:18;;;;;;;61.58;33.35;;;3.00;99.90;;;;;;12901887;23;20095;-91
2021/01/01 10:05:21;;;;;;;75.15;37.92;;;2.90;99.90;;;;;;12877344;23;20039;-90
2021/01/01 10:10:24;;;;;;;60.13;36.13;;;2.90;99.90;;;;;;12851755;23;20020;-90
2021/01/01 10:15:25;;;;;;;67.72;37.10;;;3.00;99.90;;;;;;12850472;23;20020;-91
2021/01/01 10:20:27;;;;;;;72.55;40.97;;;3.20;99.90;;;;;;12850648;23;20479;-90
2021/01/01 10:25:28;;;;;;;57.60;32.20;;;3.40;99.90;;;;;;12849456;23;20016;-91
2021/01/01 10:30:30;;;;;;;60.47;36.47;;;3.50;99.90;;;;;;12850530;23;20040;-91
2021/01/01 10:35:31;;;;;;;58.13;32.92;;;3.50;99.90;;;;;;12851915;23;20023;-91
2021/01/01 10:40:33;;;;;;;53.47;30.95;;;3.50;99.90;;;;;;12851562;23;20095;-91
2021/01/01 10:45:35;;;;;;;56.47;34.17;;;3.60;99.90;;;;;;12851358;23;20046;-92
2021/01/01 10:50:36;;;;;;;52.05;30.77;;;3.70;99.90;;;;;;12851399;23;20020;-92
2021/01/01 10:55:41;;;;;;;40.97;25.75;;;3.80;99.90;;;;;;12851667;23;20071;-92
2021/01/01 11:00:43;;;;;;;43.25;25.35;;;4.00;99.90;;;;;;12876579;23;20020;-93
2021/01/01 11:05:44;;;;;;;40.72;23.92;;;4.00;99.90;;;;;;12850795;23;20040;-93
2021/01/01 11:10:48;;;;;;;35.65;22.90;;;4.10;99.90;;;;;;12852456;23;20020;-92
2021/01/01 12:25:18;;;;;;;26.83;17.80;;;4.90;99.90;;;;;;12904577;23;20020;-92
2021/01/01 12:30:23;;;;;;;25.38;17.40;;;5.00;99.90;;;;;;12849110;23;20020;-93
2021/01/01 12:35:24;;;;;;;25.67;15.77;;;5.00;99.90;;;;;;12850231;23;20031;-93
2021/01/01 12:40:27;;;;;;;25.23;16.27;;;5.00;99.90;;;;;;12853172;23;20028;-92
2021/01/01 12:45:29;;;;;;;24.92;14.73;;;5.10;99.90;;;;;;12876314;23;20031;-92
2021/01/01 12:50:30;;;;;;;24.13;13.45;;;5.20;99.90;;;;;;12876802;23;20753;-92
2021/01/01 12:55:32;;;;;;;18.60;13.30;;;5.30;99.90;;;;;;12851735;23;20020;-93
2021/01/01 13:00:34;;;;;;;19.05;13.25;;;5.30;99.90;;;;;;12851877;23;20335;-93
2021/01/01 13:05:35;;;;;;;16.98;11.40;;;5.30;99.90;;;;;;12849927;23;20043;-92
2021/01/01 13:10:37;;;;;;;12.32;9.88;;;5.30;99.90;;;;;;12850482;23;20039;-92
2021/01/01 13:15:38;;;;;;;16.98;10.43;;;5.40;99.90;;;;;;12850852;23;20075;-92
2021/01/01 13:20:42;;;;;;;15.18;9.95;;;5.40;99.90;;;;;;12850308;23;20024;-92
2021/01/01 13:25:43;;;;;;;17.77;10.07;;;5.40;99.90;;;;;;12874928;23;20020;-92
2021/01/01 13:30:44;;;;;;;15.50;9.95;;;5.40;99.90;;;;;;12850672;23;20385;-92
2021/01/01 13:35:47;;;;;;;15.48;10.10;;;5.30;99.90;;;;;;12826647;23;20099;-92
2021/01/01 13:40:48;;;;;;;13.32;8.98;;;5.30;99.90;;;;;;12852109;23;20095;-92
2021/01/01 13:45:50;;;;;;;15.18;10.45;;;5.30;99.90;;;;;;12827754;23;20043;-92
2021/01/01 13:50:51;;;;;;;14.77;9.93;;;5.30;99.90;;;;;;12876003;23;20024;-92
2021/01/01 13:55:53;;;;;;;15.38;10.15;;;5.10;99.90;;;;;;12851989;23;20096;-92
2021/01/01 14:00:54;;;;;;;13.93;10.10;;;4.90;99.90;;;;;;12851726;23;20417;-92
2021/01/01 14:05:56;;;;;;;16.88;10.68;;;4.90;99.90;;;;;;12876048;23;20020;-92
2021/01/01 14:10:57;;;;;;;14.40;9.52;;;4.80;99.90;;;;;;12876785;23;20485;-92
2021/01/01 14:15:59;;;;;;;14.60;9.95;;;4.60;99.90;;;;;;12852011;23;20512;-92
2021/01/01 14:21:00;;;;;;;17.27;10.82;;;4.50;99.90;;;;;;12829448;23;20020;-92
2021/01/01 14:26:02;;;;;;;18.23;10.43;;;4.60;99.90;;;;;;12900677;23;20031;-93
2021/01/01 14:31:04;;;;;;;17.00;10.95;;;4.60;99.90;;;;;;12851395;23;20023;-93
2021/01/01 14:36:06;;;;;;;16.02;10.13;;;4.60;99.90;;;;;;12876090;23;20016;-93
2021/01/01 14:41:10;;;;;;;15.82;10.73;;;4.60;99.90;;;;;;12851143;23;20398;-92
2021/01/01 14:46:18;;;;;;;16.58;12.05;;;4.40;99.90;;;;;;12851921;23;20055;-92
2021/01/01 14:51:20;;;;;;;13.63;9.93;;;4.40;99.90;;;;;;12854893;23;20024;-92
2021/01/01 14:56:21;;;;;;;17.60;10.98;;;4.30;99.90;;;;;;12827465;23;20020;-93
2021/01/01 15:01:23;;;;;;;13.98;10.25;;;4.10;99.90;;;;;;12851142;23;20047;-93
2021/01/01 15:06:24;;;;;;;20.48;10.48;;;3.90;99.90;;;;;;12851161;23;20076;-92
2021/01/01 15:11:26;;;;;;;;;;;3.80;99.90;;;;;;12876010;23;20479;-92
2021/01/01 15:16:27;;;;;;;17.20;9.88;;;3.70;99.90;;;;;;12876121;23;19916;-92
2021/01/01 15:21:29;;;;;;;17.48;9.52;;;3.40;99.90;;;;;;12826116;23;20036;-92
2021/01/01 15:26:31;;;;;;;20.38;13.35;;;3.30;99.90;;;;;;12826185;23;20075;-92
2021/01/01 17:51:06;;;;;;;43.45;24.33;;;3.20;99.90;;;;;;12865657;23;20021;-93
2021/01/01 17:56:08;;;;;;;44.60;25.08;;;3.20;99.90;;;;;;12841854;23;20040;-93
2021/01/01 18:01:10;;;;;;;40.92;25.17;;;3.20;99.90;;;;;;12815939;23;20461;-95
2021/01/01 18:06:12;;;;;;;;;;;3.20;99.90;;;;;;12816049;23;20107;-93
2021/01/01 18:11:13;;;;;;;39.45;24.35;;;3.30;99.90;;;;;;12790144;23;19955;-94
2021/01/01 18:16:22;;;;;;;42.63;25.30;;;3.30;99.90;;;;;;12816098;23;20017;-96
2021/01/01 18:21:25;;;;;;;53.58;29.88;;;3.40;99.90;;;;;;12853347;23;20017;-96
2021/01/01 18:26:27;;;;;;;47.53;26.98;;;3.40;99.90;;;;;;12822907;23;20020;-95
2021/01/01 18:31:29;;;;;;;33.40;22.08;;;3.40;99.90;;;;;;12777651;23;20020;-95
2021/01/01 18:36:33;;;;;;;54.10;32.15;;;3.40;99.90;;;;;;12828901;23;20026;-95
2021/01/01 18:41:46;;;;;;;40.30;25.08;;;3.40;99.90;;;;;;12857588;23;20100;-95
2021/01/01 18:46:52;;;;;;;48.53;27.33;;;3.40;99.90;;;;;;12851959;23;20025;-94
2021/01/01 18:51:59;;;;;;;47.63;28.50;;;3.40;99.90;;;;;;12864644;23;20024;-95
2021/01/01 18:57:30;;;;;;;46.88;29.70;;;3.50;99.90;;;;;;12846488;23;20020;-95
2021/01/01 19:02:37;;;;;;;53.17;29.25;;;3.60;99.90;;;;;;12798644;23;20025;-95
2021/01/01 19:07:45;;;;;;;37.40;21.67;;;3.50;99.90;;;;;;12864164;23;20020;-94
2021/01/01 19:13:00;;;;;;;44.45;24.88;;;3.50;99.90;;;;;;12840596;23;20028;-95
2021/01/01 19:18:04;;;;;;;54.30;28.20;;;3.50;99.90;;;;;;12813994;23;20071;-93
2021/01/01 19:23:33;;;;;;;37.15;21.77;;;3.40;99.90;;;;;;12862823;23;20020;-95
2021/01/01 19:28:38;;;;;;;42.05;23.50;;;3.50;99.90;;;;;;12838785;23;20024;-95
2021/01/01 19:34:07;;;;;;;32.08;18.83;;;3.40;99.90;;;;;;12789155;23;20021;-95
2021/01/01 19:39:33;;;;;;;44.65;24.10;;;3.40;99.90;;;;;;12863986;23;20017;-95
2021/01/01 19:45:03;;;;;;;33.13;18.88;;;3.30;99.90;;;;;;12862415;23;20025;-95
2021/01/01 19:50:27;;;;;;;37.83;19.98;;;3.40;99.90;;;;;;12865523;23;20021;-95
2021/01/01 19:55:54;;;;;;;26.45;17.60;;;3.30;99.90;;;;;;12817969;23;20021;-94
2021/01/01 20:01:12;;;;;;;33.65;20.17;;;3.20;99.90;;;;;;12818167;23;20093;-95
2021/01/01 20:06:13;;;;;;;47.38;23.00;;;3.20;99.90;;;;;;12818009;23;20031;-94
2021/01/01 20:11:18;;;;;;;39.15;19.15;;;3.10;99.90;;;;;;12817388;23;20063;-95
2021/01/01 20:16:23;;;;;;;37.08;21.10;;;3.10;99.90;;;;;;12817230;23;20024;-95
2021/01/01 20:21:27;;;;;;;37.50;22.13;;;3.20;99.90;;;;;;12819910;23;20020;-95
2021/01/01 20:26:30;;;;;;;44.13;21.77;;;3.10;99.90;;;;;;12818154;23;20025;-96
2021/01/01 20:31:36;;;;;;;33.47;19.67;;;3.10;99.90;;;;;;12845397;23;20103;-94
2021/01/01 20:36:46;;;;;;;39.90;21.10;;;3.00;99.90;;;;;;12817650;23;20024;-93
2021/01/01 20:42:39;;;;;;;34.97;21.23;;;3.00;99.90;;;;;;12823417;23;20492;-94
2021/01/01 20:58:12;;;;;;;50.05;25.70;;;2.90;99.90;;;;;;12841364;23;20346;-95
2021/01/01 21:03:14;;;;;;;46.80;25.58;;;3.10;99.90;;;;;;12841739;23;20021;-95
2021/01/01 21:08:58;;;;;;;47.17;26.77;;;3.00;99.90;;;;;;12818421;23;20343;-95
2021/01/01 21:14:13;;;;;;;52.70;27.15;;;3.10;99.90;;;;;;12818906;23;20051;-95
2021/01/01 21:20:01;;;;;;;40.53;22.70;;;3.20;99.90;;;;;;12843712;23;20023;-95
2021/01/01 21:25:54;;;;;;;50.40;25.38;;;3.20;99.90;;;;;;12869093;23;20028;-95
2021/01/01 21:31:54;;;;;;;47.97;25.58;;;3.20;99.90;;;;;;12862076;22;20019;-93
2021/01/01 21:37:52;;;;;;;45.58;26.60;;;3.20;99.90;;;;;;12970711;22;20020;-94
2021/01/01 21:43:29;;;;;;;47.17;27.83;;;3.20;99.90;;;;;;12992640;22;20016;-95
2021/01/01 21:49:13;;;;;;;54.35;28.67;;;3.20;99.90;;;;;;12969114;22;20054;-95
2021/01/01 21:55:18;;;;;;;50.17;28.05;;;3.20;99.90;;;;;;12919941;22;20032;-95
2021/01/01 22:00:32;;;;;;;60.10;30.33;;;3.20;99.90;;;;;;12979889;22;20074;-95
2021/01/01 22:05:44;;;;;;;51.83;29.25;;;3.20;99.90;;;;;;12944095;22;20027;-93
2021/01/01 22:10:57;;;;;;;64.00;32.63;;;3.20;99.90;;;;;;12924676;22;20016;-95
2021/01/01 22:16:02;;;;;;;46.90;26.60;;;3.20;99.90;;;;;;12940657;22;20019;-94
2021/01/01 22:21:04;;;;;;;53.20;29.38;;;3.20;99.90;;;;;;12942911;22;20120;-95
2021/01/01 22:26:09;;;;;;;56.78;28.08;;;3.20;99.90;;;;;;12941978;22;20457;-95
2021/01/01 22:31:15;;;;;;;53.40;30.10;;;3.30;99.90;;;;;;12917067;22;20020;-95
2021/01/01 22:42:04;;;;;;;73.75;34.25;;;3.30;99.90;;;;;;12927748;22;20023;-93
2021/01/01 22:47:08;;;;;;;52.03;29.73;;;3.30;99.90;;;;;;12901233;23;20365;-93
2021/01/01 22:52:13;;;;;;;66.13;33.75;;;3.30;99.90;;;;;;12900674;23;20050;-94
2021/01/01 22:57:48;;;;;;;59.05;30.52;;;3.30;99.90;;;;;;12875388;23;20024;-94
2021/01/01 23:02:55;;;;;;;53.75;29.27;;;3.30;99.90;;;;;;12875314;23;20027;-95
2021/01/01 23:08:06;;;;;;;57.85;31.42;;;3.30;99.90;;;;;;12878426;23;20380;-94
2021/01/01 23:13:09;;;;;;;56.28;32.00;;;3.30;99.90;;;;;;12935697;22;20042;-94
2021/01/01 23:18:28;;;;;;;62.25;31.63;;;3.30;99.90;;;;;;12941041;22;20023;-94
2021/01/01 23:23:38;;;;;;;58.80;31.23;;;3.30;99.90;;;;;;12943183;22;20027;-94
2021/01/01 23:28:58;;;;;;;59.95;32.50;;;3.30;99.90;;;;;;12939484;22;20031;-94
2021/01/01 23:34:27;;;;;;;68.22;35.67;;;3.30;99.90;;;;;;12940306;22;20040;-94
2021/01/01 23:40:03;;;;;;;58.15;32.45;;;3.30;99.90;;;;;;12966661;22;20021;-95
2021/01/01 23:45:08;;;;;;;66.78;34.88;;;3.30;99.90;;;;;;12966462;22;20114;-94
2021/01/01 23:50:22;;;;;;;70.95;36.33;;;3.30;99.90;;;;;;12940296;22;20023;-93
2021/01/01 23:55:39;;;;;;;61.30;34.03;;;3.30;99.90;;;;;;12947492;22;20111;-94
